Time;durP1;ratioP1;P1;durP2;ratioP2;P2;SDS_P1;SDS_P2;PMS_P1;PMS_P2;Temp;Humidity;BMP_temperature;BMP_pressure;BME280_temperature;BME280_humidity;BME280_pressure;Samples;Min_cycle;Max_cycle;Signal;HPM_P1;HPM_P2
2024/04/15 00:00:38;;;;;;;5.90;1.30;;;8.80;99.90;;;;;;5455938;26;20006;-60
2024/04/15 00:03:05;;;;;;;4.57;1.10;;;8.90;99.90;;;;;;5456351;26;20018;-59
2024/04/15 00:05:32;;;;;;;6.30;1.20;;;8.80;99.90;;;;;;5456284;26;20022;-59
2024/04/15 00:07:59;;;;;;;5.60;1.23;;;8.80;99.90;;;;;;5456285;26;20018;-60
2024/04/15 00:10:26;;;;;;;5.78;1.10;;;8.80;99.90;;;;;;5456191;26;19999;-59
2024/04/15 00:12:53;;;;;;;5.90;1.20;;;8.80;99.90;;;;;;5456349;26;20034;-59
2024/04/15 00:15:20;;;;;;;5.32;0.98;;;8.80;99.90;;;;;;5456065;26;20046;-59
2024/04/15 00:17:49;;;;;;;9.50;1.50;;;8.70;99.90;;;;;;5455914;26;20006;-60
2024/04/15 00:20:16;;;;;;;5.65;0.95;;;8.80;99.90;;;;;;5456067;26;19995;-60
2024/04/15 00:22:43;;;;;;;6.60;1.40;;;8.70;99.90;;;;;;5456225;26;20014;-59
2024/04/15 00:25:09;;;;;;;5.55;1.15;;;8.70;99.90;;;;;;5454015;26;20068;-59
2024/04/15 00:27:36;;;;;;;3.90;1.08;;;8.70;99.90;;;;;;5455768;26;20447;-60
2024/04/15 00:30:03;;;;;;;2.78;0.80;;;8.70;99.90;;;;;;5456124;26;20011;-60
2024/04/15 00:32:30;;;;;;;4.53;1.23;;;8.70;99.90;;;;;;5455770;26;20019;-60
2024/04/15 00:34:58;;;;;;;4.70;1.23;;;8.70;99.90;;;;;;5455964;26;19998;-59
2024/04/15 00:37:24;;;;;;;7.65;1.40;;;8.70;99.90;;;;;;5455568;26;20007;-59
2024/04/15 00:39:52;;;;;;;6.07;1.10;;;8.70;99.90;;;;;;5455970;26;19995;-60
2024/04/15 00:42:19;;;;;;;4.85;1.00;;;8.70;99.90;;;;;;5453687;26;19994;-59
2024/04/15 00:44:46;;;;;;;5.35;1.40;;;8.70;99.90;;;;;;5455702;26;20011;-59
2024/04/15 00:47:13;;;;;;;5.15;1.27;;;8.70;99.90;;;;;;5455890;26;20003;-59
2024/04/15 00:49:40;;;;;;;7.00;1.80;;;8.70;99.90;;;;;;5455595;26;20456;-59
2024/04/15 00:52:07;;;;;;;9.10;1.05;;;8.70;99.90;;;;;;5455652;26;20006;-59
2024/04/15 00:54:34;;;;;;;4.88;1.08;;;8.70;99.90;;;;;;5455702;26;20003;-59
2024/04/15 00:57:01;;;;;;;8.93;1.48;;;8.70;99.90;;;;;;5454868;26;19999;-60
2024/04/15 00:59:28;;;;;;;6.47;0.90;;;8.60;99.90;;;;;;5455866;26;20081;-59
2024/04/15 01:01:55;;;;;;;5.80;1.20;;;8.60;99.90;;;;;;5455431;26;19999;-61
2024/04/15 01:04:22;;;;;;;5.22;1.05;;;8.60;99.90;;;;;;5455280;26;20364;-61
2024/04/15 01:06:48;;;;;;;6.30;1.48;;;8.60;99.90;;;;;;5455186;26;19999;-61
2024/04/15 01:09:15;;;;;;;7.38;1.42;;;8.60;99.90;;;;;;5455549;26;20335;-61
2024/04/15 01:11:42;;;;;;;4.53;1.00;;;8.60;99.90;;;;;;5455408;26;20003;-62
2024/04/15 01:14:10;;;;;;;7.38;1.27;;;8.50;99.90;;;;;;5455206;26;20354;-62
2024/04/15 01:16:36;;;;;;;8.18;1.27;;;8.50;99.90;;;;;;5455157;26;20010;-62
2024/04/15 01:19:03;;;;;;;8.73;1.10;;;8.50;99.90;;;;;;5454949;26;20010;-61
2024/04/15 01:21:30;;;;;;;6.75;1.25;;;8.50;99.90;;;;;;5455127;26;20010;-61
2024/04/15 01:23:57;;;;;;;6.53;1.20;;;8.40;99.90;;;;;;5455067;26;20527;-61
2024/04/15 01:26:24;;;;;;;7.18;1.45;;;8.40;99.90;;;;;;5454667;26;19994;-61
2024/04/15 01:28:51;;;;;;;8.00;1.67;;;8.40;99.90;;;;;;5455126;26;20003;-62
2024/04/15 01:31:18;;;;;;;3.92;1.15;;;8.40;99.90;;;;;;5455109;26;20011;-61
2024/04/15 01:33:44;;;;;;;7.00;1.40;;;8.30;99.90;;;;;;5455325;26;20003;-61
2024/04/15 01:36:11;;;;;;;6.20;0.95;;;8.30;99.90;;;;;;5453031;26;20010;-63
2024/04/15 01:38:38;;;;;;;4.75;1.08;;;8.30;99.90;;;;;;5455050;26;20006;-63
2024/04/15 01:41:05;;;;;;;6.22;0.95;;;8.30;99.90;;;;;;5455006;26;20014;-63
2024/04/15 01:43:32;;;;;;;7.43;1.15;;;8.20;99.90;;;;;;5454899;26;20075;-63
2024/04/15 01:45:59;;;;;;;5.45;1.15;;;8.20;99.90;;;;;;5454565;26;20468;-61
2024/04/15 01:48:26;;;;;;;7.93;1.30;;;8.20;99.90;;;;;;5454943;26;19999;-60
2024/04/15 01:50:53;;;;;;;8.80;1.75;;;8.20;99.90;;;;;;5454875;26;19999;-61
2024/04/15 01:53:19;;;;;;;6.95;1.50;;;8.20;99.90;;;;;;5454709;26;20014;-61
2024/04/15 01:55:46;;;;;;;4.65;1.30;;;8.20;99.90;;;;;;5454577;26;20006;-61
2024/04/15 01:58:13;;;;;;;4.60;1.13;;;8.20;99.90;;;;;;5454749;26;19999;-61
2024/04/15 02:00:40;;;;;;;7.70;1.40;;;8.10;99.90;;;;;;5454700;26;20002;-61
2024/04/15 02:03:07;;;;;;;5.82;1.33;;;8.10;99.90;;;;;;5454652;26;20006;-62
2024/04/15 02:05:34;;;;;;;4.57;1.25;;;8.10;99.90;;;;;;5454384;26;20414;-62
2024/04/15 02:08:01;;;;;;;7.28;1.35;;;8.10;99.90;;;;;;5453698;26;20003;-62
2024/04/15 02:10:28;;;;;;;9.05;1.25;;;8.10;99.90;;;;;;5454428;26;20014;-61
2024/04/15 02:12:55;;;;;;;6.53;1.08;;;8.10;99.90;;;;;;5454470;26;20023;-61
2024/04/15 02:15:22;;;;;;;8.48;1.15;;;8.00;99.90;;;;;;5452575;26;20010;-61
2024/04/15 02:17:49;;;;;;;8.50;1.58;;;8.00;99.90;;;;;;5454514;26;20013;-61
2024/04/15 02:20:16;;;;;;;6.30;1.20;;;8.00;99.90;;;;;;5454439;26;20524;-62
2024/04/15 02:22:43;;;;;;;7.03;1.52;;;8.00;99.90;;;;;;5454289;26;20015;-61
2024/04/15 02:25:10;;;;;;;6.68;1.35;;;8.00;99.90;;;;;;5454260;26;20009;-61
2024/04/15 02:27:37;;;;;;;5.13;1.20;;;8.00;99.90;;;;;;5454372;26;19998;-61
2024/04/15 02:30:04;;;;;;;6.18;1.35;;;8.00;99.90;;;;;;5454523;26;20432;-61
2024/04/15 02:32:31;;;;;;;6.53;1.45;;;8.00;99.90;;;;;;5454213;26;20303;-62
2024/04/15 02:34:58;;;;;;;5.97;1.40;;;7.90;99.90;;;;;;5454364;26;20010;-62
2024/04/15 02:37:25;;;;;;;10.98;1.42;;;7.90;99.90;;;;;;5454099;26;20003;-62
2024/04/15 02:39:52;;;;;;;12.48;1.88;;;7.90;99.90;;;;;;5454190;26;20440;-62
2024/04/15 02:42:19;;;;;;;7.75;1.42;;;7.90;99.90;;;;;;5454173;26;20046;-61
2024/04/15 02:44:46;;;;;;;7.22;1.52;;;7.80;99.90;;;;;;5454027;26;20440;-61
2024/04/15 02:47:12;;;;;;;8.07;1.50;;;7.80;99.90;;;;;;5454354;26;20455;-62
2024/04/15 02:49:39;;;;;;;7.80;1.52;;;7.80;99.90;;;;;;5454078;26;20334;-62
2024/04/15 02:52:06;;;;;;;8.02;1.67;;;7.80;99.90;;;;;;5453978;26;20023;-62
2024/04/15 02:54:33;;;;;;;5.13;1.33;;;7.80;99.90;;;;;;5453962;26;19999;-62
2024/04/15 02:57:00;;;;;;;14.27;1.98;;;7.80;99.90;;;;;;5453673;26;20074;-62
2024/04/15 02:59:27;;;;;;;7.50;1.95;;;7.80;99.90;;;;;;5453768;26;19995;-62
2024/04/15 03:01:54;;;;;;;10.10;1.83;;;7.80;99.90;;;;;;5453790;26;20007;-62
2024/04/15 03:04:21;;;;;;;6.28;1.15;;;7.80;99.90;;;;;;5453629;26;20010;-62
2024/04/15 03:06:48;;;;;;;5.53;1.52;;;7.80;99.90;;;;;;5453664;26;20020;-60
2024/04/15 03:09:17;;;;;;;6.45;1.17;;;7.90;99.90;;;;;;5453598;26;20332;-60
2024/04/15 03:11:44;;;;;;;4.50;0.90;;;7.90;99.90;;;;;;5453659;26;20014;-63
2024/04/15 03:14:11;;;;;;;11.40;1.92;;;8.00;99.90;;;;;;5453674;26;19998;-63
2024/04/15 03:16:38;;;;;;;5.80;1.45;;;8.00;99.90;;;;;;5453303;26;20460;-59
2024/04/15 03:19:05;;;;;;;5.53;1.73;;;8.10;99.90;;;;;;5454249;26;19995;-60
2024/04/15 03:21:32;;;;;;;8.32;1.30;;;8.10;99.90;;;;;;5457048;26;20002;-59
2024/04/15 03:23:59;;;;;;;8.98;1.50;;;8.20;99.90;;;;;;5456771;26;20010;-59
2024/04/15 03:26:26;;;;;;;4.95;1.27;;;8.30;99.90;;;;;;5457540;26;20007;-59
2024/04/15 03:28:53;;;;;;;8.73;1.25;;;8.30;99.90;;;;;;5457309;26;19995;-60
2024/04/15 03:31:20;;;;;;;7.82;1.40;;;8.30;99.90;;;;;;5456679;26;20091;-59
2024/04/15 03:33:46;;;;;;;6.93;1.30;;;8.40;99.90;;;;;;5456725;26;20400;-60
2024/04/15 03:36:14;;;;;;;5.20;1.35;;;8.30;99.90;;;;;;5456738;26;20011;-60
2024/04/15 03:38:41;;;;;;;6.13;1.05;;;8.30;99.90;;;;;;5456560;26;20440;-59
2024/04/15 03:41:08;;;;;;;9.32;1.60;;;8.30;99.90;;;;;;5456612;26;20083;-60
2024/04/15 03:43:36;;;;;;;6.00;1.35;;;8.30;99.90;;;;;;5456724;26;19999;-59
2024/04/15 03:46:03;;;;;;;8.43;1.23;;;8.30;99.90;;;;;;5456510;26;20017;-59
2024/04/15 03:48:30;;;;;;;10.18;1.42;;;8.30;99.90;;;;;;5456552;26;19995;-59
2024/04/15 03:50:57;;;;;;;8.10;1.83;;;8.30;99.90;;;;;;5456425;26;20459;-59
2024/04/15 03:53:24;;;;;;;8.63;1.52;;;8.30;99.90;;;;;;5456573;26;20010;-59
2024/04/15 03:55:51;;;;;;;7.88;1.65;;;8.30;99.90;;;;;;5456372;26;20010;-60
2024/04/15 03:58:18;;;;;;;11.05;2.15;;;8.30;99.90;;;;;;5456411;26;20487;-60
2024/04/15 04:00:45;;;;;;;6.88;1.10;;;8.20;99.90;;;;;;5456334;26;20002;-59
2024/04/15 04:03:12;;;;;;;11.25;1.85;;;8.20;99.90;;;;;;5456432;26;20003;-59
2024/04/15 04:05:39;;;;;;;8.98;1.60;;;8.20;99.90;;;;;;5456232;26;20471;-59
2024/04/15 04:08:06;;;;;;;5.95;1.27;;;8.20;99.90;;;;;;5456212;26;19995;-59
2024/04/15 04:10:32;;;;;;;12.52;2.63;;;8.20;99.90;;;;;;5454681;26;20034;-59
2024/04/15 04:12:59;;;;;;;7.90;1.30;;;8.20;99.90;;;;;;5456383;26;20013;-59
2024/04/15 04:15:26;;;;;;;8.25;1.25;;;8.20;99.90;;;;;;5456205;26;20004;-59
2024/04/15 04:17:53;;;;;;;6.80;1.20;;;8.20;99.90;;;;;;5455940;26;20393;-59
2024/04/15 04:20:20;;;;;;;7.28;1.70;;;8.20;99.90;;;;;;5456212;26;20020;-63
2024/04/15 04:22:47;;;;;;;9.20;1.67;;;8.20;99.90;;;;;;5456006;26;19998;-65
2024/04/15 04:25:14;;;;;;;10.65;1.77;;;8.20;99.90;;;;;;5456021;26;20014;-63
2024/04/15 04:27:41;;;;;;;9.10;1.67;;;8.30;99.90;;;;;;5455613;26;20321;-63
2024/04/15 04:30:08;;;;;;;7.88;1.58;;;8.20;99.90;;;;;;5455781;26;20010;-64
2024/04/15 04:32:35;;;;;;;8.57;1.75;;;8.30;99.90;;;;;;5453428;26;20044;-64
2024/04/15 04:35:02;;;;;;;7.68;1.33;;;8.30;99.90;;;;;;5455836;26;20030;-64
2024/04/15 04:37:29;;;;;;;10.68;2.00;;;8.30;99.90;;;;;;5455735;26;20068;-65
2024/04/15 04:39:56;;;;;;;10.95;1.48;;;8.30;99.90;;;;;;5455774;26;20007;-65
2024/04/15 04:42:23;;;;;;;7.13;1.58;;;8.30;99.90;;;;;;5455716;26;20003;-64
2024/04/15 04:44:50;;;;;;;7.88;2.20;;;8.40;99.90;;;;;;5455756;26;20010;-63
2024/04/15 04:47:19;;;;;;;9.73;1.50;;;8.40;99.90;;;;;;5455560;26;20009;-63
2024/04/15 04:49:46;;;;;;;7.43;1.40;;;8.40;99.90;;;;;;5455796;26;19999;-62
2024/04/15 04:52:13;;;;;;;10.15;1.48;;;8.40;99.90;;;;;;5455855;26;20007;-62
2024/04/15 04:54:40;;;;;;;9.93;1.60;;;8.50;99.90;;;;;;5455685;26;20353;-62
2024/04/15 04:57:06;;;;;;;8.90;1.77;;;8.50;99.90;;;;;;5455483;26;19999;-61
2024/04/15 04:59:33;;;;;;;8.35;1.75;;;8.50;99.90;;;;;;5455192;26;20006;-61
2024/04/15 05:02:01;;;;;;;12.27;1.83;;;8.60;99.90;;;;;;5455593;26;20009;-62
2024/04/15 05:04:33;;;;;;;12.52;1.80;;;8.60;99.90;;;;;;5455549;26;20022;-61
2024/04/15 05:07:00;;;;;;;10.88;1.67;;;8.70;99.90;;;;;;5455400;26;20003;-59
2024/04/15 05:09:27;;;;;;;9.48;1.50;;;8.70;99.90;;;;;;5455364;26;20041;-60
2024/04/15 05:11:53;;;;;;;9.40;1.67;;;8.80;99.90;;;;;;5455486;26;19999;-60
2024/04/15 05:14:20;;;;;;;7.60;1.88;;;8.90;99.90;;;;;;5455569;26;20048;-60
2024/04/15 05:16:48;;;;;;;7.55;1.65;;;8.90;99.90;;;;;;5455262;26;20075;-60
2024/04/15 05:19:15;;;;;;;8.70;1.55;;;8.90;99.90;;;;;;5455455;26;20027;-60
2024/04/15 05:21:42;;;;;;;9.73;1.60;;;8.90;99.90;;;;;;5455101;26;20014;-60
2024/04/15 05:24:09;;;;;;;10.32;1.60;;;8.90;99.90;;;;;;5454880;26;20079;-60
2024/04/15 05:26:36;;;;;;;10.98;1.77;;;9.00;99.90;;;;;;5455163;26;20043;-60
2024/04/15 05:29:02;;;;;;;9.23;1.70;;;9.00;99.90;;;;;;5455444;26;19999;-60
2024/04/15 05:31:29;;;;;;;9.05;1.67;;;9.00;99.90;;;;;;5455281;26;20393;-59
2024/04/15 05:33:56;;;;;;;8.63;1.65;;;9.10;99.90;;;;;;5455050;26;20362;-60
2024/04/15 05:36:23;;;;;;;11.25;2.13;;;9.10;99.90;;;;;;5455042;26;20023;-61
2024/04/15 05:38:50;;;;;;;12.70;1.70;;;9.10;99.90;;;;;;5454943;26;20006;-61
2024/04/15 05:41:17;;;;;;;10.38;2.22;;;9.20;99.90;;;;;;5455001;26;20288;-60
2024/04/15 05:43:44;;;;;;;12.40;1.67;;;9.20;99.90;;;;;;5453463;26;19999;-58
2024/04/15 05:46:10;;;;;;;6.57;1.40;;;9.20;99.90;;;;;;5455402;26;20006;-59
2024/04/15 05:48:38;;;;;;;8.95;2.00;;;9.30;99.90;;;;;;5454958;26;20003;-59
2024/04/15 05:51:05;;;;;;;7.55;2.10;;;9.30;99.90;;;;;;5454767;26;20024;-59
2024/04/15 05:53:32;;;;;;;7.47;1.48;;;9.40;99.90;;;;;;5454831;26;20459;-58
2024/04/15 05:55:59;;;;;;;15.70;2.17;;;9.40;99.90;;;;;;5454589;26;20389;-60
2024/04/15 05:58:26;;;;;;;7.20;1.20;;;9.40;99.90;;;;;;5454761;26;20468;-62
2024/04/15 06:00:53;;;;;;;12.43;1.90;;;9.40;99.90;;;;;;5454622;26;19999;-61
2024/04/15 06:03:20;;;;;;;7.32;1.52;;;9.50;99.90;;;;;;5453064;26;20025;-62
2024/04/15 06:05:47;;;;;;;9.90;1.60;;;9.50;99.90;;;;;;5454978;26;20006;-62
2024/04/15 06:08:14;;;;;;;12.48;1.52;;;9.50;99.90;;;;;;5454611;26;20015;-61
2024/04/15 06:10:40;;;;;;;6.72;1.63;;;9.60;99.90;;;;;;5454815;26;19995;-62
2024/04/15 06:13:07;;;;;;;9.95;1.55;;;9.60;99.90;;;;;;5422899;26;20031;-62
2024/04/15 06:15:37;;;;;;;7.15;1.40;;;9.70;99.90;;;;;;5454404;26;20335;-63
2024/04/15 06:18:04;;;;;;;8.25;1.38;;;9.70;99.90;;;;;;5454295;26;20022;-62
2024/04/15 06:20:31;;;;;;;6.20;1.33;;;9.70;99.90;;;;;;5454279;26;20074;-61
2024/04/15 06:22:58;;;;;;;10.82;1.83;;;9.80;99.90;;;;;;5454311;26;20006;-61
2024/04/15 06:25:25;;;;;;;12.07;2.60;;;9.90;99.90;;;;;;5454542;26;20009;-61
2024/04/15 06:27:52;;;;;;;10.15;1.58;;;9.90;99.90;;;;;;5454149;26;20042;-61
2024/04/15 06:30:19;;;;;;;8.50;1.25;;;9.90;99.90;;;;;;5452587;26;20002;-61
2024/04/15 06:32:47;;;;;;;8.27;1.80;;;10.00;99.90;;;;;;5454038;26;20042;-62
2024/04/15 06:35:14;;;;;;;8.32;1.38;;;10.10;99.90;;;;;;5454247;26;20452;-61
2024/04/15 06:37:41;;;;;;;5.15;1.10;;;10.10;99.90;;;;;;5452370;26;20015;-62
2024/04/15 06:40:07;;;;;;;4.85;1.25;;;10.10;99.90;;;;;;5454020;26;20008;-62
2024/04/15 06:42:34;;;;;;;3.78;1.48;;;10.10;99.90;;;;;;5441670;26;20333;-62
2024/04/15 06:45:01;;;;;;;3.28;0.88;;;10.10;99.90;;;;;;5431738;26;20045;-63
2024/04/15 06:47:28;;;;;;;8.13;1.42;;;10.20;99.90;;;;;;5442459;26;20108;-63
2024/04/15 06:49:55;;;;;;;6.65;1.88;;;10.20;99.90;;;;;;5429279;26;20341;-62
2024/04/15 06:52:22;;;;;;;5.97;1.17;;;10.20;99.90;;;;;;5452360;26;19998;-62
2024/04/15 06:54:53;;;;;;;5.35;1.20;;;10.20;99.90;;;;;;5452957;26;20003;-62
2024/04/15 06:57:19;;;;;;;7.65;1.60;;;10.20;99.90;;;;;;5453169;26;20010;-62
2024/04/15 06:59:46;;;;;;;9.40;2.08;;;10.30;99.90;;;;;;5453125;26;20013;-61
2024/04/15 07:02:17;;;;;;;8.52;2.03;;;10.30;99.90;;;;;;5453254;26;20076;-62
2024/04/15 07:04:45;;;;;;;4.28;1.10;;;10.40;99.90;;;;;;5451125;26;20007;-62
2024/04/15 07:07:12;;;;;;;6.05;1.40;;;10.50;99.90;;;;;;5453027;26;20010;-61
2024/04/15 07:09:39;;;;;;;9.93;1.83;;;10.60;99.90;;;;;;5453117;26;20031;-62
2024/04/15 07:12:06;;;;;;;9.35;1.90;;;10.60;99.90;;;;;;5451083;26;20401;-62
2024/04/15 07:14:33;;;;;;;10.27;2.05;;;10.60;99.90;;;;;;5452724;26;20569;-61
2024/04/15 07:17:00;;;;;;;9.73;2.08;;;10.60;99.90;;;;;;5449328;26;20011;-62
2024/04/15 07:19:27;;;;;;;9.77;2.00;;;10.60;99.90;;;;;;5452880;26;20010;-61
2024/04/15 07:21:54;;;;;;;13.73;2.08;;;10.70;99.90;;;;;;5452572;26;20003;-62
2024/04/15 07:24:21;;;;;;;9.40;2.20;;;10.80;99.90;;;;;;5452477;26;20003;-61
2024/04/15 07:26:48;;;;;;;9.82;2.00;;;10.90;99.90;;;;;;5452488;26;20321;-61
2024/04/15 07:29:15;;;;;;;13.98;2.00;;;11.00;99.90;;;;;;5452922;26;20002;-61
2024/04/15 07:31:42;;;;;;;16.92;2.13;;;11.00;99.90;;;;;;5452511;26;20079;-61
2024/04/15 07:34:09;;;;;;;9.52;1.80;;;11.10;99.90;;;;;;5436417;26;20008;-62
2024/04/15 07:36:36;;;;;;;9.85;1.90;;;11.20;99.90;;;;;;5435218;26;20079;-61
2024/04/15 07:39:03;;;;;;;13.73;1.98;;;11.20;99.90;;;;;;5453130;26;20003;-62
2024/04/15 07:41:31;;;;;;;11.55;2.65;;;11.20;99.90;;;;;;5452960;26;20018;-62
2024/04/15 07:43:58;;;;;;;8.10;1.83;;;11.30;99.90;;;;;;5451943;26;20010;-62
2024/04/15 07:46:25;;;;;;;11.23;2.65;;;11.30;99.90;;;;;;5452904;26;20329;-62
2024/04/15 07:48:52;;;;;;;6.68;1.75;;;11.40;99.90;;;;;;5452326;26;20007;-62
2024/04/15 07:51:21;;;;;;;9.43;1.92;;;11.50;99.90;;;;;;5443113;26;20475;-62
2024/04/15 07:53:48;;;;;;;10.27;2.10;;;11.60;99.90;;;;;;5422676;26;20003;-62
2024/04/15 07:56:15;;;;;;;9.32;1.67;;;11.60;99.90;;;;;;5452069;26;20088;-62
2024/04/15 07:58:42;;;;;;;10.18;2.10;;;11.70;99.90;;;;;;5451886;26;19999;-62
2024/04/15 08:01:09;;;;;;;12.75;2.08;;;11.80;99.90;;;;;;5451082;26;20036;-61
2024/04/15 08:03:36;;;;;;;10.43;1.77;;;11.90;99.90;;;;;;5434721;26;20395;-62
2024/04/15 08:06:03;;;;;;;10.45;1.75;;;11.90;99.90;;;;;;5458746;26;20002;-62
2024/04/15 08:08:30;;;;;;;10.93;2.03;;;11.90;99.90;;;;;;5463906;26;20085;-62
2024/04/15 08:10:56;;;;;;;8.77;1.80;;;11.90;99.90;;;;;;5469687;26;20074;-61
2024/04/15 08:13:23;;;;;;;9.43;1.80;;;11.90;99.90;;;;;;5472599;26;20002;-62
2024/04/15 08:15:51;;;;;;;12.07;1.77;;;12.00;99.90;;;;;;5471227;26;20003;-62
2024/04/15 08:18:18;;;;;;;9.38;1.83;;;12.10;99.90;;;;;;5457081;26;20074;-62
2024/04/15 08:20:45;;;;;;;7.55;1.50;;;12.10;99.90;;;;;;5455482;26;19999;-61
2024/04/15 08:23:11;;;;;;;9.43;2.13;;;12.10;99.90;;;;;;5466412;26;19998;-61
2024/04/15 08:25:41;;;;;;;8.77;1.88;;;12.10;99.90;;;;;;5488899;26;20002;-61
2024/04/15 08:28:08;;;;;;;8.68;1.90;;;12.10;99.90;;;;;;5470447;26;20002;-61
2024/04/15 08:30:36;;;;;;;11.77;2.08;;;12.00;99.90;;;;;;5471809;26;20002;-61
2024/04/15 08:33:03;;;;;;;7.82;1.73;;;12.00;99.90;;;;;;5465538;26;20014;-61
2024/04/15 08:35:30;;;;;;;8.23;1.80;;;11.90;99.90;;;;;;5455168;26;19999;-61
2024/04/15 08:37:58;;;;;;;8.45;1.50;;;11.80;99.90;;;;;;5455340;26;20014;-61
2024/04/15 08:40:25;;;;;;;9.30;1.83;;;11.60;99.90;;;;;;5455195;26;20014;-62
2024/04/15 08:42:53;;;;;;;7.53;1.60;;;11.50;99.90;;;;;;5474599;26;20017;-61
2024/04/15 08:45:20;;;;;;;7.20;1.92;;;11.40;99.90;;;;;;5491706;26;19998;-61
2024/04/15 08:47:48;;;;;;;7.80;1.65;;;11.30;99.90;;;;;;5468931;26;20003;-61
2024/04/15 08:50:16;;;;;;;7.95;1.90;;;11.20;99.90;;;;;;5454761;26;20347;-61
2024/04/15 08:52:43;;;;;;;6.85;1.63;;;11.20;99.90;;;;;;5455220;26;19999;-61
2024/04/15 08:55:10;;;;;;;9.95;2.08;;;11.00;99.90;;;;;;5455417;26;19999;-61
2024/04/15 08:57:37;;;;;;;8.02;1.50;;;10.90;99.90;;;;;;5469814;26;20009;-61
2024/04/15 09:00:04;;;;;;;10.32;1.70;;;10.70;99.90;;;;;;5444476;26;20008;-61
2024/04/15 09:02:31;;;;;;;9.63;1.83;;;10.50;99.90;;;;;;5432859;26;19999;-61
2024/04/15 09:04:58;;;;;;;8.20;1.48;;;10.30;99.90;;;;;;5423318;26;20017;-60
2024/04/15 09:07:25;;;;;;;9.18;1.80;;;9.90;99.90;;;;;;5452984;26;19999;-61
2024/04/15 09:09:53;;;;;;;7.60;1.50;;;9.50;99.90;;;;;;5454979;26;20003;-61
2024/04/15 09:12:22;;;;;;;4.43;1.40;;;9.30;99.90;;;;;;5454770;26;20003;-65
2024/04/15 09:14:49;;;;;;;6.13;0.93;;;8.80;99.90;;;;;;5441698;26;20426;-66
2024/04/15 09:17:16;;;;;;;1.80;0.80;;;8.10;99.90;;;;;;5428204;26;19999;-66
2024/04/15 09:19:43;;;;;;;3.53;0.70;;;7.70;99.90;;;;;;5443951;26;20015;-67
2024/04/15 09:22:10;;;;;;;4.82;0.85;;;7.60;99.90;;;;;;5426274;26;20007;-66
2024/04/15 09:24:38;;;;;;;7.13;1.73;;;7.60;99.90;;;;;;5454938;26;20085;-65
2024/04/15 09:27:06;;;;;;;4.20;1.38;;;7.70;99.90;;;;;;5452926;26;20365;-66
2024/04/15 09:29:33;;;;;;;2.67;0.80;;;7.80;99.90;;;;;;5444472;26;20004;-64
2024/04/15 09:32:00;;;;;;;4.70;0.70;;;7.70;99.90;;;;;;5435564;26;20348;-64
2024/04/15 09:34:27;;;;;;;2.45;0.70;;;7.70;99.90;;;;;;5426980;26;20003;-65
2024/04/15 09:36:57;;;;;;;1.80;0.70;;;7.70;99.90;;;;;;5427122;26;20003;-64
2024/04/15 09:39:24;;;;;;;2.97;0.80;;;7.80;99.90;;;;;;5455036;26;20067;-64
2024/04/15 09:41:52;;;;;;;2.00;0.63;;;7.90;99.90;;;;;;5454288;26;20003;-65
2024/04/15 09:44:19;;;;;;;2.20;0.60;;;7.90;99.90;;;;;;5454528;26;20014;-65
2024/04/15 09:46:46;;;;;;;2.50;0.60;;;8.00;99.90;;;;;;5452891;26;20034;-63
2024/04/15 09:49:14;;;;;;;3.72;1.25;;;8.00;99.90;;;;;;5452808;26;19999;-63
2024/04/15 09:51:41;;;;;;;5.18;1.08;;;8.00;99.90;;;;;;5452711;26;20436;-63
2024/04/15 09:54:08;;;;;;;4.22;0.80;;;8.00;99.90;;;;;;5454315;26;20038;-63
2024/04/15 09:56:35;;;;;;;2.35;0.52;;;8.10;99.90;;;;;;5454230;26;20026;-63
2024/04/15 09:59:02;;;;;;;3.50;0.70;;;8.10;99.90;;;;;;5448332;26;20011;-63
2024/04/15 10:01:33;;;;;;;2.20;0.80;;;8.10;99.90;;;;;;5418148;26;20018;-63
2024/04/15 10:04:00;;;;;;;3.55;0.70;;;8.10;99.90;;;;;;5448901;26;19999;-62
2024/04/15 10:06:27;;;;;;;4.80;0.73;;;8.00;99.90;;;;;;5452563;26;20007;-63
2024/04/15 10:08:54;;;;;;;3.08;0.77;;;8.00;99.90;;;;;;5454019;26;20003;-63
2024/04/15 10:11:21;;;;;;;3.33;0.93;;;8.00;99.90;;;;;;5454044;26;20072;-63
2024/04/15 10:13:49;;;;;;;3.72;0.80;;;8.10;99.90;;;;;;5453593;26;19999;-63
2024/04/15 10:16:16;;;;;;;5.32;1.13;;;8.10;99.90;;;;;;5454293;26;20409;-62
2024/04/15 10:19:09;;;;;;;4.75;0.80;;;8.20;99.90;;;;;;5454066;26;20002;-63
2024/04/15 10:21:36;;;;;;;2.45;0.70;;;8.30;99.90;;;;;;5453818;26;20424;-63
2024/04/15 10:24:03;;;;;;;4.32;1.13;;;8.40;99.90;;;;;;5453829;26;20010;-63
2024/04/15 10:26:30;;;;;;;7.22;1.00;;;8.50;99.90;;;;;;5453854;26;20003;-62
2024/04/15 10:28:57;;;;;;;7.35;1.17;;;8.70;99.90;;;;;;5452940;26;20003;-63
2024/04/15 10:31:27;;;;;;;4.72;1.08;;;8.90;99.90;;;;;;5452248;26;20022;-63
2024/04/15 10:33:54;;;;;;;3.22;1.02;;;9.10;99.90;;;;;;5453418;26;19999;-62
2024/04/15 10:36:21;;;;;;;9.60;1.73;;;9.20;99.90;;;;;;5452450;26;20075;-63
2024/04/15 10:38:50;;;;;;;4.72;0.98;;;9.30;99.90;;;;;;5453132;26;20011;-63
2024/04/15 10:41:17;;;;;;;6.05;0.95;;;9.40;99.90;;;;;;5437678;26;20008;-63
2024/04/15 10:43:44;;;;;;;4.40;0.93;;;9.40;99.90;;;;;;5439814;26;20030;-65
2024/04/15 10:46:11;;;;;;;6.22;0.93;;;9.50;99.90;;;;;;5453030;26;20010;-64
2024/04/15 10:48:38;;;;;;;6.88;1.40;;;9.60;99.90;;;;;;5437964;26;20075;-64
2024/04/15 10:51:04;;;;;;;4.00;1.30;;;9.60;99.90;;;;;;5433801;26;20074;-64
2024/04/15 10:53:31;;;;;;;5.43;1.20;;;9.80;99.90;;;;;;5435999;26;20401;-65
2024/04/15 10:55:58;;;;;;;5.63;1.60;;;9.90;99.90;;;;;;5429625;26;20007;-65
2024/04/15 10:58:25;;;;;;;5.80;1.13;;;10.10;99.90;;;;;;5452900;26;20016;-66
2024/04/15 11:00:52;;;;;;;5.50;1.17;;;10.20;99.90;;;;;;5440033;26;19998;-66
2024/04/15 11:03:20;;;;;;;8.32;1.63;;;10.30;99.90;;;;;;5457011;26;20360;-65
2024/04/15 11:05:47;;;;;;;7.00;1.20;;;10.40;99.90;;;;;;5489614;26;20037;-67
2024/04/15 11:08:15;;;;;;;3.83;0.90;;;10.50;99.90;;;;;;5486161;26;20010;-66
2024/04/15 11:10:42;;;;;;;2.88;0.95;;;10.40;99.90;;;;;;5417279;26;20014;-65
2024/04/15 11:13:09;;;;;;;4.97;1.10;;;10.40;99.90;;;;;;5417393;26;20008;-65
2024/04/15 11:15:36;;;;;;;1.95;0.70;;;10.40;99.30;;;;;;5417171;26;20007;-65
2024/04/15 11:18:03;;;;;;;5.18;0.75;;;10.40;97.70;;;;;;5418617;26;20077;-64
2024/04/15 11:20:30;;;;;;;3.40;0.88;;;10.50;97.50;;;;;;5452867;26;20017;-65
2024/04/15 11:22:57;;;;;;;4.03;1.00;;;10.50;96.50;;;;;;5453006;26;20047;-65
2024/04/15 11:25:24;;;;;;;4.22;1.13;;;10.50;96.70;;;;;;5452847;26;19998;-64
2024/04/15 11:27:51;;;;;;;4.68;1.10;;;10.50;96.60;;;;;;5452659;26;20369;-65
2024/04/15 11:30:22;;;;;;;4.60;1.00;;;10.60;97.10;;;;;;5450039;26;20007;-64
2024/04/15 11:32:50;;;;;;;2.80;0.90;;;10.70;96.50;;;;;;5452763;26;20003;-65
2024/04/15 11:35:17;;;;;;;5.38;0.90;;;10.80;97.10;;;;;;5450734;26;20123;-64
2024/04/15 11:37:44;;;;;;;3.13;1.20;;;10.80;96.60;;;;;;5414786;26;20007;-64
2024/04/15 11:40:14;;;;;;;4.63;1.20;;;10.80;97.20;;;;;;5419749;26;19999;-64
2024/04/15 11:42:41;;;;;;;3.95;1.17;;;10.70;96.60;;;;;;5425741;26;20003;-64
2024/04/15 11:45:08;;;;;;;4.15;0.90;;;10.70;96.60;;;;;;5422273;26;19995;-62
2024/04/15 11:47:35;;;;;;;5.60;1.00;;;10.80;96.60;;;;;;5455361;26;20022;-61
2024/04/15 11:50:02;;;;;;;3.55;1.10;;;10.90;97.40;;;;;;5455594;26;20002;-61
2024/04/15 11:52:29;;;;;;;3.33;1.08;;;11.00;96.10;;;;;;5455449;26;20003;-62
2024/04/15 11:54:56;;;;;;;4.75;1.08;;;10.90;95.40;;;;;;5455328;26;20452;-61
2024/04/15 11:57:23;;;;;;;5.63;1.23;;;10.90;95.00;;;;;;5453574;26;20075;-61
2024/04/15 11:59:49;;;;;;;3.97;0.93;;;10.90;94.80;;;;;;5455645;26;20351;-61
2024/04/15 12:02:18;;;;;;;6.47;1.10;;;11.00;94.50;;;;;;5454903;26;20021;-60
2024/04/15 12:04:44;;;;;;;4.35;1.13;;;11.10;94.70;;;;;;5455790;26;20003;-61
2024/04/15 12:07:11;;;;;;;4.70;1.50;;;11.30;95.40;;;;;;5455446;26;20452;-60
2024/04/15 12:09:38;;;;;;;4.10;1.42;;;11.40;96.00;;;;;;5455176;26;20080;-61
2024/04/15 12:12:05;;;;;;;4.75;1.40;;;11.40;94.90;;;;;;5455535;26;20335;-60
2024/04/15 12:14:32;;;;;;;4.15;1.20;;;11.30;94.60;;;;;;5455426;26;20015;-60
2024/04/15 12:16:59;;;;;;;6.43;1.20;;;11.20;95.60;;;;;;5454317;26;19999;-60
2024/04/15 12:19:26;;;;;;;5.68;1.08;;;11.30;94.50;;;;;;5455286;26;20316;-60
2024/04/15 12:21:53;;;;;;;4.30;1.00;;;11.30;94.70;;;;;;5455233;26;20009;-61
2024/04/15 12:24:21;;;;;;;3.97;1.20;;;11.30;93.70;;;;;;5454955;26;20014;-61
2024/04/15 12:26:48;;;;;;;4.22;1.17;;;11.30;93.60;;;;;;5453803;26;20282;-60
2024/04/15 12:29:15;;;;;;;6.32;1.35;;;11.20;94.00;;;;;;5454500;26;20003;-60
2024/04/15 12:31:42;;;;;;;7.22;1.35;;;11.30;94.60;;;;;;5455213;26;20003;-60
2024/04/15 12:34:09;;;;;;;9.00;1.38;;;11.30;94.00;;;;;;5454803;26;20018;-59
2024/04/15 12:36:36;;;;;;;5.45;1.25;;;11.30;93.90;;;;;;5452895;26;20033;-60
2024/04/15 12:39:03;;;;;;;4.07;1.27;;;11.40;94.20;;;;;;5455102;26;20035;-60
2024/04/15 12:41:30;;;;;;;5.70;1.45;;;11.40;93.80;;;;;;5454769;26;20011;-61
2024/04/15 12:43:57;;;;;;;5.18;1.50;;;11.50;93.60;;;;;;5455247;26;20493;-60
2024/04/15 12:46:27;;;;;;;7.18;1.48;;;11.50;93.40;;;;;;5455486;26;20007;-61
2024/04/15 12:48:54;;;;;;;8.30;1.70;;;11.60;93.40;;;;;;5455729;26;19999;-60
2024/04/15 12:51:20;;;;;;;6.22;1.40;;;11.70;93.40;;;;;;5453137;26;20002;-61